createdAt,value
2023-02-17T00:02:17.721Z,-1.99
2023-02-17T00:04:45.253Z,-2.02
2023-02-17T00:07:13.357Z,-2.06
2023-02-17T00:09:40.873Z,-2.11
2023-02-17T00:12:08.782Z,-2.22
2023-02-17T00:14:36.674Z,-2.22
2023-02-17T00:17:04.239Z,-2.20
2023-02-17T00:19:33.170Z,-2.21
2023-02-17T00:22:02.082Z,-2.24
2023-02-17T00:24:32.040Z,-2.25
2023-02-17T00:27:00.309Z,-2.30
2023-02-17T00:29:27.968Z,-2.33
2023-02-17T00:31:56.906Z,-2.34
2023-02-17T00:34:24.723Z,-2.37
2023-02-17T00:36:53.637Z,-2.39
2023-02-17T00:39:21.350Z,-2.37
2023-02-17T00:41:48.897Z,-2.39
2023-02-17T00:44:18.245Z,-2.45
2023-02-17T00:46:46.809Z,-2.43
2023-02-17T00:49:17.508Z,-2.39
2023-02-17T00:51:45.175Z,-2.39
2023-02-17T00:54:14.570Z,-2.42
2023-02-17T00:56:42.514Z,-2.45
2023-02-17T00:59:11.279Z,-2.44
2023-02-17T01:01:39.750Z,-2.47
2023-02-17T01:04:07.560Z,-2.46
2023-02-17T01:06:36.947Z,-2.48
2023-02-17T01:09:06.549Z,-2.44
2023-02-17T01:11:37.344Z,-2.43
2023-02-17T01:14:06.868Z,-2.44
2023-02-17T01:16:37.425Z,-2.44
2023-02-17T01:19:07.310Z,-2.44
2023-02-17T01:21:35.013Z,-2.41
2023-02-17T01:24:05.256Z,-2.37
2023-02-17T01:26:35.907Z,-2.32
2023-02-17T01:29:04.514Z,-2.30
2023-02-17T01:31:32.236Z,-2.28
2023-02-17T01:34:01.558Z,-2.26
2023-02-17T01:36:29.468Z,-2.23
2023-02-17T01:38:57.044Z,-2.21
2023-02-17T01:41:27.641Z,-2.20
2023-02-17T01:44:12.348Z,-2.11
2023-02-17T01:46:41.321Z,-2.15
2023-02-17T01:49:16.817Z,-2.17
2023-02-17T01:51:45.268Z,-2.11
2023-02-17T01:54:15.478Z,-2.20
2023-02-17T01:56:46.137Z,-2.23
2023-02-17T01:59:18.675Z,-2.23
2023-02-17T02:01:46.760Z,-2.16
2023-02-17T02:04:16.530Z,-2.13
2023-02-17T02:06:44.923Z,-2.10
2023-02-17T02:09:18.295Z,-2.06
2023-02-17T02:11:45.938Z,-2.04
2023-02-17T02:14:14.953Z,-1.99
2023-02-17T02:16:46.815Z,-1.97
2023-02-17T02:19:31.498Z,-1.95
2023-02-17T02:22:19.606Z,-1.94
2023-02-17T02:24:57.073Z,-1.89
2023-02-17T02:27:52.642Z,-1.82
2023-02-17T02:30:53.384Z,-1.76
2023-02-17T02:33:26.889Z,-1.75
2023-02-17T02:35:59.553Z,-1.67
2023-02-17T02:38:31.341Z,-1.72
2023-02-17T02:41:05.589Z,-1.60
2023-02-17T02:43:33.585Z,-1.62
2023-02-17T02:46:01.116Z,-1.59
2023-02-17T02:48:30.093Z,-1.62
2023-02-17T02:51:09.214Z,-1.66
2023-02-17T02:54:00.143Z,-1.57
2023-02-17T02:56:36.505Z,-1.53
2023-02-17T02:59:11.804Z,-1.48
2023-02-17T03:01:46.319Z,-1.44
2023-02-17T03:04:19.609Z,-1.43
2023-02-17T03:06:49.757Z,-1.42
2023-02-17T03:09:21.372Z,-1.44
2023-02-17T03:11:49.155Z,-1.36
2023-02-17T03:14:19.357Z,-1.38
2023-02-17T03:16:47.235Z,-1.29
2023-02-17T03:19:18.795Z,-1.28
2023-02-17T03:21:49.569Z,-1.28
2023-02-17T03:24:17.910Z,-1.29
2023-02-17T03:26:45.525Z,-1.25
2023-02-17T03:29:13.666Z,-1.26
2023-02-17T03:31:41.388Z,-1.23
2023-02-17T03:34:09.418Z,-1.25
2023-02-17T03:36:38.302Z,-1.24
2023-02-17T03:39:05.843Z,-1.23
2023-02-17T03:41:33.652Z,-1.15
2023-02-17T03:44:01.840Z,-1.15
2023-02-17T03:46:29.585Z,-1.14
2023-02-17T03:48:57.282Z,-1.13
2023-02-17T03:51:25.664Z,-1.08
2023-02-17T03:53:54.659Z,-1.10
2023-02-17T03:56:22.544Z,-1.10
2023-02-17T03:58:50.127Z,-1.06
2023-02-17T04:01:18.322Z,-1.06
2023-02-17T04:03:46.890Z,-1.00
2023-02-17T04:06:14.941Z,-0.98
2023-02-17T04:08:42.779Z,-0.95
2023-02-17T04:11:12.109Z,-0.93
2023-02-17T04:13:40.034Z,-0.86
2023-02-17T04:16:08.922Z,-0.88
2023-02-17T04:18:37.155Z,-0.78
2023-02-17T04:21:05.414Z,-0.78
2023-02-17T04:23:32.989Z,-0.76
2023-02-17T04:26:00.831Z,-0.74
2023-02-17T04:28:30.807Z,-0.67
2023-02-17T04:31:00.106Z,-0.60
2023-02-17T04:33:27.907Z,-0.65
2023-02-17T04:35:59.501Z,-0.62
2023-02-17T04:38:28.299Z,-0.58
2023-02-17T04:40:56.558Z,-0.62
2023-02-17T04:43:24.889Z,-0.56
2023-02-17T04:45:54.685Z,-0.55
2023-02-17T04:48:23.345Z,-0.59
2023-02-17T04:50:51.224Z,-0.62
2023-02-17T04:53:20.602Z,-0.61
2023-02-17T04:55:49.645Z,-0.58
2023-02-17T04:58:17.227Z,-0.57
2023-02-17T05:00:44.848Z,-0.52
2023-02-17T05:03:13.778Z,-0.49
2023-02-17T05:05:41.372Z,-0.42
2023-02-17T05:08:09.508Z,-0.37
2023-02-17T05:10:37.078Z,-0.32
2023-02-17T05:13:04.618Z,-0.27
2023-02-17T05:15:34.728Z,-0.27
2023-02-17T05:18:02.557Z,-0.25
2023-02-17T05:20:31.474Z,-0.23
2023-02-17T05:22:59.000Z,-0.21
2023-02-17T05:25:26.529Z,-0.25
2023-02-17T05:27:54.121Z,-0.21
2023-02-17T05:30:21.867Z,-0.24
2023-02-17T05:32:49.487Z,-0.26
2023-02-17T05:35:17.145Z,-0.33
2023-02-17T05:37:46.278Z,-0.34
2023-02-17T05:40:14.151Z,-0.45
2023-02-17T05:42:41.792Z,-0.47
2023-02-17T05:45:09.744Z,-0.46
2023-02-17T05:47:37.555Z,-0.41
2023-02-17T05:50:05.972Z,-0.44
2023-02-17T05:52:34.591Z,-0.33
2023-02-17T05:55:04.725Z,-0.30
2023-02-17T05:57:32.821Z,-0.24
2023-02-17T06:00:00.376Z,-0.18
2023-02-17T06:02:27.957Z,-0.14
2023-02-17T06:04:55.629Z,-0.12
2023-02-17T06:07:23.788Z,-0.12
2023-02-17T06:09:51.350Z,-0.20
2023-02-17T06:12:20.226Z,-0.09
2023-02-17T06:14:47.746Z,-0.06
2023-02-17T06:17:15.293Z,-0.09
2023-02-17T06:19:42.859Z,-0.07
2023-02-17T06:22:10.438Z,-0.01
2023-02-17T06:24:37.969Z,0.01
2023-02-17T06:27:05.608Z,0.05
2023-02-17T06:29:34.760Z,0.05
2023-02-17T06:32:02.434Z,0.07
2023-02-17T06:34:30.128Z,0.05
2023-02-17T06:36:57.797Z,0.05
2023-02-17T06:39:25.430Z,0.04
2023-02-17T06:41:53.068Z,0.05
2023-02-17T06:44:20.805Z,-0.03
2023-02-17T06:46:49.722Z,0.04
2023-02-17T06:49:17.339Z,0.07
2023-02-17T06:51:44.980Z,0.09
2023-02-17T06:54:12.544Z,0.13
2023-02-17T06:56:40.119Z,0.19
2023-02-17T06:59:07.637Z,0.25
2023-02-17T07:01:35.190Z,0.28
2023-02-17T07:04:04.123Z,0.33
2023-02-17T07:06:31.761Z,0.38
2023-02-17T07:08:59.337Z,0.45
2023-02-17T07:11:31.243Z,0.41
2023-02-17T07:13:58.827Z,0.51
2023-02-17T07:16:26.429Z,0.52
2023-02-17T07:18:53.945Z,0.66
2023-02-17T07:21:22.828Z,0.70
2023-02-17T07:23:50.412Z,0.76
2023-02-17T07:26:17.963Z,0.80
2023-02-17T07:28:45.590Z,0.89
2023-02-17T07:31:14.583Z,0.91
2023-02-17T07:33:43.092Z,1.05
2023-02-17T07:36:12.846Z,1.14
2023-02-17T07:38:42.324Z,1.27
2023-02-17T07:41:11.629Z,1.35
2023-02-17T07:43:39.429Z,1.47
2023-02-17T07:46:08.594Z,1.63
2023-02-17T07:48:36.786Z,1.77
2023-02-17T07:51:07.821Z,1.70
2023-02-17T07:53:35.836Z,1.78
2023-02-17T07:56:05.932Z,1.99
2023-02-17T07:58:33.842Z,1.96
2023-02-17T08:01:06.816Z,1.92
2023-02-17T08:03:34.386Z,1.93
2023-02-17T08:06:02.263Z,2.01
2023-02-17T08:08:47.417Z,2.15
2023-02-17T08:11:35.458Z,2.26
2023-02-17T08:14:03.220Z,2.33
2023-02-17T08:16:30.774Z,2.42
2023-02-17T08:18:58.682Z,2.47
2023-02-17T08:21:28.061Z,2.44
2023-02-17T08:23:56.087Z,2.58
2023-02-17T08:26:25.245Z,2.70
2023-02-17T08:28:52.802Z,2.68
2023-02-17T08:31:22.921Z,2.77
2023-02-17T08:33:50.843Z,2.86
2023-02-17T08:36:20.751Z,2.89
2023-02-17T08:38:50.338Z,2.98
2023-02-17T08:41:21.337Z,3.03
2023-02-17T08:43:50.841Z,3.18
2023-02-17T08:46:19.425Z,3.21
2023-02-17T08:48:47.540Z,3.25
2023-02-17T08:51:16.070Z,3.33
2023-02-17T08:53:44.225Z,3.44
2023-02-17T08:56:13.039Z,3.45
2023-02-17T08:58:40.658Z,3.48
2023-02-17T09:01:09.601Z,3.48
2023-02-17T09:03:38.388Z,3.59
2023-02-17T09:06:07.639Z,3.61
2023-02-17T09:08:35.634Z,3.75
2023-02-17T09:11:03.654Z,3.78
2023-02-17T09:13:31.186Z,3.83
2023-02-17T09:15:59.290Z,3.81
2023-02-17T09:18:28.361Z,3.86
2023-02-17T09:20:56.033Z,4.09
2023-02-17T09:23:23.585Z,4.22
2023-02-17T09:25:51.100Z,4.32
2023-02-17T09:28:18.670Z,4.41
2023-02-17T09:30:46.342Z,4.49
2023-02-17T09:33:13.996Z,4.78
2023-02-17T09:35:44.419Z,4.85
2023-02-17T09:38:12.200Z,4.87
2023-02-17T09:40:44.190Z,4.78
2023-02-17T09:43:13.427Z,4.86
2023-02-17T09:45:41.258Z,4.80
2023-02-17T09:48:11.195Z,4.96
2023-02-17T09:50:45.567Z,5.03
2023-02-17T09:53:17.185Z,5.17
2023-02-17T09:55:48.260Z,5.29
2023-02-17T09:58:19.271Z,5.36
2023-02-17T10:00:49.211Z,5.38
2023-02-17T10:03:18.586Z,5.37
2023-02-17T10:05:52.699Z,5.47
2023-02-17T10:08:23.412Z,5.64
2023-02-17T10:10:55.781Z,5.71
2023-02-17T10:13:24.931Z,5.72
2023-02-17T10:15:54.353Z,5.64
2023-02-17T10:18:26.447Z,5.70
2023-02-17T10:20:59.756Z,5.69
2023-02-17T10:23:29.120Z,5.79
2023-02-17T10:26:09.435Z,5.95
2023-02-17T10:28:49.092Z,5.96
2023-02-17T10:31:23.381Z,6.02
2023-02-17T10:33:56.880Z,6.06
2023-02-17T10:36:31.767Z,6.07
2023-02-17T10:39:03.056Z,6.12
2023-02-17T10:41:35.189Z,6.18
2023-02-17T10:44:04.348Z,6.40
2023-02-17T10:46:32.515Z,6.74
2023-02-17T10:49:00.441Z,6.92
2023-02-17T10:51:31.052Z,7.29
2023-02-17T10:54:01.427Z,7.56
2023-02-17T10:56:34.483Z,7.79
2023-02-17T10:59:06.397Z,7.88
2023-02-17T11:01:34.317Z,8.00
2023-02-17T11:04:03.660Z,8.00
2023-02-17T11:06:33.496Z,8.03
2023-02-17T11:09:03.269Z,8.10
2023-02-17T11:11:32.277Z,8.13
2023-02-17T11:14:10.794Z,8.09
2023-02-17T11:16:41.076Z,8.11
2023-02-17T11:19:21.289Z,8.21
2023-02-17T11:21:52.006Z,8.41
2023-02-17T11:24:19.743Z,8.56
2023-02-17T11:26:57.133Z,8.61
2023-02-17T11:29:25.087Z,8.69
2023-02-17T11:31:57.269Z,8.79
2023-02-17T11:34:27.797Z,8.82
2023-02-17T11:37:01.727Z,8.89
2023-02-17T11:39:29.322Z,9.00
2023-02-17T11:41:57.651Z,9.04
2023-02-17T11:44:26.540Z,8.97
2023-02-17T11:47:01.588Z,8.93
2023-02-17T11:49:55.461Z,8.94
2023-02-17T11:52:36.093Z,8.99
2023-02-17T11:55:14.725Z,8.98
2023-02-17T11:57:45.551Z,9.06
2023-02-17T12:00:19.350Z,9.05
2023-02-17T12:03:03.454Z,9.10
2023-02-17T12:05:36.519Z,9.13
2023-02-17T12:08:14.876Z,9.12
2023-02-17T12:10:50.942Z,9.17
2023-02-17T12:13:28.728Z,9.18
2023-02-17T12:16:07.033Z,9.19
2023-02-17T12:18:42.879Z,9.12
2023-02-17T12:21:15.104Z,9.08
2023-02-17T12:24:01.864Z,9.01
2023-02-17T12:26:37.461Z,9.01
2023-02-17T12:29:16.824Z,8.96
2023-02-17T12:31:57.766Z,9.10
2023-02-17T12:34:31.091Z,9.09
2023-02-17T12:36:59.745Z,9.01
2023-02-17T12:39:32.640Z,8.98
2023-02-17T12:42:02.715Z,9.08
2023-02-17T12:44:31.628Z,9.20
2023-02-17T12:47:01.666Z,9.31
2023-02-17T12:49:35.447Z,9.29
2023-02-17T12:52:07.573Z,9.35
2023-02-17T12:54:41.784Z,9.33
2023-02-17T12:57:15.388Z,9.26
2023-02-17T12:59:43.919Z,9.27
2023-02-17T13:02:13.353Z,9.25
2023-02-17T13:04:42.160Z,9.10
2023-02-17T13:07:22.714Z,9.10
2023-02-17T13:09:52.542Z,9.13
2023-02-17T13:12:34.484Z,9.15
2023-02-17T13:15:03.399Z,9.19
2023-02-17T13:17:33.437Z,9.18
2023-02-17T13:20:07.892Z,9.07
2023-02-17T13:22:35.742Z,9.01
2023-02-17T13:25:04.986Z,9.02
2023-02-17T13:27:34.521Z,9.02
2023-02-17T13:30:04.273Z,9.08
2023-02-17T13:32:33.982Z,9.07
2023-02-17T13:35:05.652Z,9.02
2023-02-17T13:37:41.567Z,8.97
2023-02-17T13:40:35.786Z,8.88
2023-02-17T13:43:12.293Z,8.81
2023-02-17T13:45:42.274Z,8.74
2023-02-17T13:48:15.894Z,8.81
2023-02-17T13:50:47.918Z,8.81
2023-02-17T13:53:25.943Z,8.76
2023-02-17T13:55:56.721Z,8.78
2023-02-17T13:58:27.899Z,8.84
2023-02-17T14:00:56.382Z,8.86
2023-02-17T14:03:25.594Z,8.82
2023-02-17T14:05:54.539Z,8.82
2023-02-17T14:08:28.159Z,8.78
2023-02-17T14:10:57.554Z,8.81
2023-02-17T14:13:25.595Z,8.78
2023-02-17T14:15:55.936Z,8.76
2023-02-17T14:18:31.733Z,8.77
2023-02-17T14:21:05.887Z,8.78
2023-02-17T14:23:45.630Z,8.87
2023-02-17T14:26:25.607Z,8.97
2023-02-17T14:28:54.768Z,8.98
2023-02-17T14:31:23.491Z,8.90
2023-02-17T14:34:00.213Z,8.92
2023-02-17T14:36:34.255Z,9.00
2023-02-17T14:39:02.611Z,9.16
2023-02-17T14:41:31.681Z,9.24
2023-02-17T14:44:00.714Z,9.30
2023-02-17T14:46:29.127Z,9.34
2023-02-17T14:48:56.901Z,9.38
2023-02-17T14:51:25.829Z,9.47
2023-02-17T14:53:53.864Z,9.42
2023-02-17T14:56:25.383Z,9.40
2023-02-17T14:58:54.990Z,9.33
2023-02-17T15:01:24.561Z,9.34
2023-02-17T15:03:53.022Z,9.33
2023-02-17T15:06:22.537Z,9.32
2023-02-17T15:08:50.440Z,9.30
2023-02-17T15:11:21.051Z,9.31
2023-02-17T15:13:48.610Z,9.25
2023-02-17T15:16:17.473Z,9.34
2023-02-17T15:18:45.095Z,9.22
2023-02-17T15:21:21.202Z,9.29
2023-02-17T15:23:48.717Z,9.26
2023-02-17T15:26:16.335Z,9.23
2023-02-17T15:28:43.890Z,9.24
2023-02-17T15:31:12.942Z,9.31
2023-02-17T15:33:42.423Z,9.38
2023-02-17T15:36:13.712Z,9.38
2023-02-17T15:38:41.464Z,9.39
2023-02-17T15:41:14.237Z,9.32
2023-02-17T15:43:41.964Z,9.45
2023-02-17T15:46:14.926Z,9.45
2023-02-17T15:48:44.741Z,9.42
2023-02-17T15:51:13.364Z,9.32
2023-02-17T15:53:40.933Z,9.27
2023-02-17T15:56:13.113Z,9.25
2023-02-17T15:58:40.955Z,9.24
2023-02-17T16:01:17.292Z,9.19
2023-02-17T16:03:46.176Z,9.22
2023-02-17T16:06:13.692Z,9.22
2023-02-17T16:08:41.222Z,9.16
2023-02-17T16:11:11.611Z,9.09
2023-02-17T16:13:39.168Z,9.11
2023-02-17T16:16:10.525Z,8.98
2023-02-17T16:18:38.034Z,9.00
2023-02-17T16:21:07.360Z,8.90
2023-02-17T16:23:34.917Z,8.76
2023-02-17T16:26:02.809Z,8.86
2023-02-17T16:28:30.749Z,8.81
2023-02-17T16:30:58.306Z,8.72
2023-02-17T16:33:25.894Z,8.76
2023-02-17T16:35:53.453Z,8.88
2023-02-17T16:38:24.486Z,8.97
2023-02-17T16:40:54.717Z,8.90
2023-02-17T16:43:25.300Z,9.04
2023-02-17T16:45:55.498Z,8.98
2023-02-17T16:48:24.830Z,9.17
2023-02-17T16:50:53.020Z,9.20
2023-02-17T16:53:22.102Z,9.18
2023-02-17T16:55:49.968Z,9.06
2023-02-17T16:58:19.268Z,9.12
2023-02-17T17:00:47.936Z,9.33
2023-02-17T17:03:16.048Z,9.35
2023-02-17T17:05:43.879Z,9.23
2023-02-17T17:08:14.236Z,9.22
2023-02-17T17:10:44.174Z,9.17
2023-02-17T17:13:12.238Z,9.18
2023-02-17T17:15:42.814Z,9.10
2023-02-17T17:18:11.339Z,9.07
2023-02-17T17:20:41.752Z,9.18
2023-02-17T17:23:11.853Z,9.13
2023-02-17T17:25:41.148Z,9.23
2023-02-17T17:28:14.107Z,9.46
2023-02-17T17:30:41.778Z,9.36
2023-02-17T17:33:09.777Z,9.47
2023-02-17T17:35:37.865Z,9.46
2023-02-17T17:38:05.545Z,9.41
2023-02-17T17:40:48.069Z,9.39
2023-02-17T17:43:18.662Z,9.31
2023-02-17T17:45:46.254Z,9.31
2023-02-17T17:48:14.958Z,9.26
2023-02-17T17:50:43.368Z,9.28
2023-02-17T17:53:11.001Z,9.16
2023-02-17T17:55:38.617Z,9.25
2023-02-17T17:58:06.298Z,9.31
2023-02-17T18:00:35.442Z,9.40
2023-02-17T18:03:04.006Z,9.32
2023-02-17T18:05:32.030Z,9.22
2023-02-17T18:07:59.666Z,9.20
2023-02-17T18:10:27.238Z,9.17
2023-02-17T18:12:54.863Z,9.13
2023-02-17T18:15:22.593Z,9.16
2023-02-17T18:17:52.516Z,9.09
2023-02-17T18:20:20.275Z,9.07
2023-02-17T18:22:47.779Z,9.12
2023-02-17T18:25:15.395Z,9.10
2023-02-17T18:27:44.826Z,9.19
2023-02-17T18:30:14.836Z,9.18
2023-02-17T18:32:44.103Z,9.16
2023-02-17T18:35:13.370Z,9.27
2023-02-17T18:37:41.247Z,9.27
2023-02-17T18:40:12.446Z,9.30
2023-02-17T18:42:40.152Z,9.36
2023-02-17T18:45:09.900Z,9.51
2023-02-17T18:47:37.459Z,9.37
2023-02-17T18:50:05.134Z,9.33
2023-02-17T18:52:34.145Z,9.33
2023-02-17T18:55:01.674Z,9.30
2023-02-17T18:57:29.183Z,9.44
2023-02-17T18:59:56.783Z,9.53
2023-02-17T19:02:26.018Z,9.47
2023-02-17T19:04:54.183Z,9.50
2023-02-17T19:07:22.451Z,9.49
2023-02-17T19:09:52.954Z,9.49
2023-02-17T19:12:20.467Z,9.53
2023-02-17T19:14:48.456Z,9.38
2023-02-17T19:17:18.325Z,9.40
2023-02-17T19:19:46.066Z,9.51
2023-02-17T19:22:13.632Z,9.53
2023-02-17T19:24:42.347Z,9.54
2023-02-17T19:27:11.437Z,9.49
2023-02-17T19:29:39.064Z,9.55
2023-02-17T19:32:06.732Z,9.57
2023-02-17T19:34:35.173Z,9.60
2023-02-17T19:37:02.791Z,9.53
2023-02-17T19:39:31.845Z,9.60
2023-02-17T19:41:59.397Z,9.56
2023-02-17T19:44:28.281Z,9.58
2023-02-17T19:46:56.186Z,9.53
2023-02-17T19:49:23.770Z,9.49
2023-02-17T19:51:51.423Z,9.43
2023-02-17T19:54:18.969Z,9.45
2023-02-17T19:56:48.428Z,9.36
2023-02-17T19:59:16.004Z,9.37
2023-02-17T20:01:45.544Z,9.31
2023-02-17T20:04:14.578Z,9.24
2023-02-17T20:06:43.550Z,9.22
2023-02-17T20:09:12.684Z,9.15
2023-02-17T20:11:40.691Z,9.12
2023-02-17T20:14:08.360Z,9.21
2023-02-17T20:16:35.882Z,9.30
2023-02-17T20:19:05.287Z,9.41
2023-02-17T20:21:34.218Z,9.40
2023-02-17T20:24:02.161Z,9.47
2023-02-17T20:26:31.191Z,9.50
2023-02-17T20:28:59.293Z,9.47
2023-02-17T20:31:27.725Z,9.52
2023-02-17T20:33:55.706Z,9.55
2023-02-17T20:36:25.232Z,9.52
2023-02-17T20:38:53.012Z,9.55
2023-02-17T20:41:22.606Z,9.61
2023-02-17T20:43:50.963Z,9.54
2023-02-17T20:46:22.051Z,9.52
2023-02-17T20:48:50.201Z,9.42
2023-02-17T20:51:18.105Z,9.48
2023-02-17T20:53:47.173Z,9.48
2023-02-17T20:56:15.316Z,9.45
2023-02-17T20:58:43.550Z,9.50
2023-02-17T21:01:11.706Z,9.41
2023-02-17T21:03:39.695Z,9.49
2023-02-17T21:06:24.698Z,9.49
2023-02-17T21:08:55.691Z,9.47
2023-02-17T21:11:23.781Z,9.48
2023-02-17T21:13:52.050Z,9.38
2023-02-17T21:16:22.060Z,9.44
2023-02-17T21:18:49.745Z,9.47
2023-02-17T21:21:17.730Z,9.48
2023-02-17T21:23:46.102Z,9.43
2023-02-17T21:26:15.915Z,9.40
2023-02-17T21:28:43.800Z,9.40
2023-02-17T21:31:11.825Z,9.39
2023-02-17T21:33:42.104Z,9.46
2023-02-17T21:36:11.237Z,9.38
2023-02-17T21:38:39.159Z,9.55
2023-02-17T21:41:10.570Z,9.61
2023-02-17T21:43:57.294Z,9.55
2023-02-17T21:46:25.820Z,9.49
2023-02-17T21:48:53.629Z,9.42
2023-02-17T21:51:21.292Z,9.41
2023-02-17T21:53:48.841Z,9.38
2023-02-17T21:56:16.857Z,9.37
2023-02-17T21:58:47.624Z,9.34
2023-02-17T22:01:15.865Z,9.36
2023-02-17T22:03:43.518Z,9.24
2023-02-17T22:06:16.021Z,9.33
2023-02-17T22:08:43.564Z,9.34
2023-02-17T22:11:15.193Z,9.36
2023-02-17T22:13:42.844Z,9.26
2023-02-17T22:16:12.288Z,9.32
2023-02-17T22:18:40.002Z,9.26
2023-02-17T22:21:09.277Z,9.20
2023-02-17T22:23:37.036Z,9.15
2023-02-17T22:26:09.140Z,9.12
2023-02-17T22:28:37.102Z,9.11
2023-02-17T22:31:04.688Z,9.09
2023-02-17T22:33:34.015Z,9.08
2023-02-17T22:36:03.452Z,9.03
2023-02-17T22:38:31.501Z,8.97
2023-02-17T22:40:59.160Z,8.94
2023-02-17T22:43:26.953Z,8.90
2023-02-17T22:45:59.117Z,8.86
2023-02-17T22:48:26.953Z,8.82
2023-02-17T22:50:55.867Z,8.75
2023-02-17T22:53:23.485Z,8.77
2023-02-17T22:55:54.416Z,8.75
2023-02-17T22:58:22.220Z,8.74
2023-02-17T23:00:50.155Z,8.73
2023-02-17T23:03:18.120Z,8.72
2023-02-17T23:05:46.853Z,8.74
2023-02-17T23:08:15.901Z,8.68
2023-02-17T23:10:44.076Z,8.64
2023-02-17T23:13:11.980Z,8.67
2023-02-17T23:15:40.452Z,8.64
2023-02-17T23:18:09.606Z,8.59
2023-02-17T23:20:39.080Z,8.59
2023-02-17T23:23:06.785Z,8.57
2023-02-17T23:25:35.813Z,8.51
2023-02-17T23:28:05.901Z,8.45
2023-02-17T23:30:34.092Z,8.39
2023-02-17T23:33:01.801Z,8.36
2023-02-17T23:35:29.499Z,8.36
2023-02-17T23:37:57.048Z,8.36
2023-02-17T23:40:24.602Z,8.35
2023-02-17T23:42:53.549Z,8.36
2023-02-17T23:45:21.082Z,8.31
2023-02-17T23:47:48.679Z,8.32
2023-02-17T23:50:17.319Z,8.30
2023-02-17T23:52:44.972Z,8.22
2023-02-17T23:55:12.743Z,8.24
2023-02-17T23:57:40.275Z,8.23
